Terminal Aerodrome Forecast
Issued by NWS

Home | Current Version | Previous Version | Text Only | Print | Product List | Glossary On
Versions: 1 2 3 4 5 6 7
000
FTUS42 TJSJ 281700 RRA
TAFIST
TAF
TIST 281742Z 2818/2918 06013KT P6SM FEW025 SCT060
     FM282300 07008KT P6SM SCT025 SCT045 BKN060
     FM291300 05012KT P6SM SCT025 SCT035 SCT045=

USA.gov is the U.S. government's official web portal to all federal, state and local government web resources and services.